createdAt,value
2023-03-02T00:01:49.208Z,7.07
2023-03-02T00:04:20.776Z,7.30
2023-03-02T00:06:49.741Z,7.60
2023-03-02T00:09:18.004Z,7.47
2023-03-02T00:11:47.608Z,7.20
2023-03-02T00:14:15.643Z,8.30
2023-03-02T00:16:43.712Z,8.20
2023-03-02T00:19:11.737Z,8.03
2023-03-02T00:21:41.029Z,7.90
2023-03-02T00:24:09.819Z,8.20
2023-03-02T00:26:38.300Z,7.20
2023-03-02T00:29:07.796Z,8.07
2023-03-02T00:31:35.906Z,8.37
2023-03-02T00:34:04.003Z,7.97
2023-03-02T00:36:32.132Z,8.43
2023-03-02T00:39:00.166Z,8.23
2023-03-02T00:41:29.066Z,7.93
2023-03-02T00:43:57.152Z,7.93
2023-03-02T00:46:28.592Z,8.33
2023-03-02T00:48:56.772Z,8.80
2023-03-02T00:51:25.042Z,8.10
2023-03-02T00:53:53.088Z,7.67
2023-03-02T00:56:21.073Z,8.10
2023-03-02T00:58:52.283Z,7.90
2023-03-02T01:01:20.497Z,7.53
2023-03-02T01:03:53.364Z,7.10
2023-03-02T01:06:22.758Z,7.50
2023-03-02T01:08:50.905Z,7.93
2023-03-02T01:11:20.868Z,7.17
2023-03-02T01:13:50.193Z,7.30
2023-03-02T01:16:19.122Z,8.70
2023-03-02T01:18:47.227Z,8.20
2023-03-02T01:21:17.483Z,7.57
2023-03-02T01:23:45.502Z,7.30
2023-03-02T01:26:13.615Z,7.67
2023-03-02T01:28:41.622Z,8.30
2023-03-02T01:31:09.672Z,6.83
2023-03-02T01:33:37.720Z,7.17
2023-03-02T01:36:06.393Z,8.53
2023-03-02T01:38:35.850Z,8.30
2023-03-02T01:45:51.633Z,8.27
2023-03-02T01:48:28.839Z,7.90
2023-03-02T01:50:58.310Z,7.90
2023-03-02T01:53:29.814Z,7.07
2023-03-02T01:56:02.784Z,7.10
2023-03-02T01:58:35.383Z,7.60
2023-03-02T02:01:03.894Z,7.60
2023-03-02T02:03:32.512Z,6.67
2023-03-02T02:06:09.759Z,7.07
2023-03-02T02:08:39.334Z,8.00
2023-03-02T02:11:09.132Z,9.03
2023-03-02T02:13:37.235Z,8.20
2023-03-02T02:16:06.481Z,6.40
2023-03-02T02:18:36.887Z,7.40
2023-03-02T02:21:05.976Z,7.50
2023-03-02T02:23:40.658Z,7.00
2023-03-02T02:26:18.388Z,7.30
2023-03-02T02:28:57.882Z,7.93
2023-03-02T02:31:34.357Z,7.50
2023-03-02T02:34:07.717Z,7.33
2023-03-02T02:36:40.941Z,7.23
2023-03-02T02:39:28.889Z,7.10
2023-03-02T02:42:01.805Z,8.13
2023-03-02T02:44:31.188Z,6.97
2023-03-02T02:46:59.572Z,7.33
2023-03-02T02:49:32.066Z,7.57
2023-03-02T02:52:00.923Z,7.07
2023-03-02T02:54:30.013Z,6.40
2023-03-02T02:57:00.449Z,7.50
2023-03-02T02:59:33.384Z,6.90
2023-03-02T03:02:02.539Z,7.57
2023-03-02T03:04:33.418Z,7.20
2023-03-02T03:07:03.709Z,6.67
2023-03-02T03:09:32.828Z,6.90
2023-03-02T03:12:09.515Z,6.53
2023-03-02T03:14:40.758Z,6.80
2023-03-02T03:17:13.183Z,6.90
2023-03-02T03:19:48.823Z,7.07
2023-03-02T03:22:18.353Z,7.47
2023-03-02T03:24:48.835Z,7.97
2023-03-02T03:27:20.288Z,7.63
2023-03-02T03:29:49.151Z,7.50
2023-03-02T03:32:20.105Z,6.80
2023-03-02T03:34:50.194Z,7.80
2023-03-02T03:37:26.588Z,6.50
2023-03-02T03:39:54.913Z,7.37
2023-03-02T03:42:25.148Z,6.97
2023-03-02T03:44:55.583Z,6.60
2023-03-02T03:47:24.371Z,7.50
2023-03-02T03:49:53.061Z,7.63
2023-03-02T03:52:31.291Z,7.87
2023-03-02T03:55:08.610Z,6.70
2023-03-02T03:57:37.982Z,5.93
2023-03-02T04:00:09.017Z,7.83
2023-03-02T04:02:42.290Z,7.03
2023-03-02T04:05:12.783Z,7.10
2023-03-02T04:07:42.038Z,8.37
2023-03-02T04:10:12.293Z,7.90
2023-03-02T04:12:43.456Z,7.63
2023-03-02T04:15:15.408Z,7.47
2023-03-02T04:17:44.984Z,7.87
2023-03-02T04:20:16.873Z,7.17
2023-03-02T04:22:50.029Z,6.73
2023-03-02T04:25:20.302Z,8.13
2023-03-02T04:27:52.900Z,6.90
2023-03-02T04:30:24.350Z,6.13
2023-03-02T04:32:53.002Z,6.80
2023-03-02T04:35:22.082Z,6.57
2023-03-02T04:37:50.187Z,7.63
2023-03-02T04:40:18.527Z,7.40
2023-03-02T04:42:46.705Z,9.07
2023-03-02T04:45:16.713Z,7.33
2023-03-02T04:47:44.769Z,7.07
2023-03-02T04:50:14.976Z,6.07
2023-03-02T04:52:43.317Z,7.30
2023-03-02T04:55:19.071Z,5.70
2023-03-02T04:57:47.129Z,7.07
2023-03-02T05:00:18.427Z,7.53
2023-03-02T05:02:46.867Z,6.73
2023-03-02T05:05:18.526Z,6.50
2023-03-02T05:07:46.941Z,6.50
2023-03-02T05:10:17.109Z,6.60
2023-03-02T05:12:57.798Z,6.20
2023-03-02T05:15:29.686Z,7.57
2023-03-02T05:17:57.763Z,6.73
2023-03-02T05:20:27.582Z,6.10
2023-03-02T05:22:56.583Z,6.20
2023-03-02T05:25:25.542Z,6.80
2023-03-02T05:27:53.826Z,5.90
2023-03-02T05:30:23.071Z,6.80
2023-03-02T05:32:53.518Z,5.77
2023-03-02T05:35:22.663Z,5.87
2023-03-02T05:37:50.983Z,6.27
2023-03-02T05:40:21.278Z,6.53
2023-03-02T05:42:50.629Z,5.90
2023-03-02T05:45:22.268Z,6.57
2023-03-02T05:47:51.633Z,6.13
2023-03-02T05:50:20.146Z,5.47
2023-03-02T05:52:48.398Z,6.10
2023-03-02T05:55:17.651Z,5.63
2023-03-02T05:57:46.063Z,6.63
2023-03-02T06:00:15.403Z,5.90
2023-03-02T06:02:43.880Z,7.43
2023-03-02T06:05:15.911Z,7.10
2023-03-02T06:07:44.338Z,6.07
2023-03-02T06:10:14.410Z,6.10
2023-03-02T06:12:42.699Z,5.90
2023-03-02T06:15:11.007Z,6.00
2023-03-02T06:17:39.091Z,6.30
2023-03-02T06:20:10.938Z,6.53
2023-03-02T06:22:42.166Z,6.30
2023-03-02T06:25:11.258Z,6.43
2023-03-02T06:27:40.625Z,7.23
2023-03-02T06:30:12.389Z,7.37
2023-03-02T06:32:41.051Z,7.23
2023-03-02T06:35:10.362Z,6.93
2023-03-02T06:37:40.937Z,6.00
2023-03-02T06:40:11.811Z,6.30
2023-03-02T06:42:40.212Z,6.77
2023-03-02T06:45:10.156Z,6.43
2023-03-02T06:47:38.269Z,6.00
2023-03-02T06:50:07.268Z,6.03
2023-03-02T06:52:36.153Z,6.57
2023-03-02T06:55:06.348Z,7.70
2023-03-02T06:57:34.889Z,7.10
2023-03-02T07:00:07.430Z,6.83
2023-03-02T07:02:35.476Z,7.17
2023-03-02T07:05:03.565Z,5.70
2023-03-02T07:07:31.583Z,7.20
2023-03-02T07:09:59.735Z,7.27
2023-03-02T07:12:29.127Z,6.70
2023-03-02T07:14:57.148Z,6.97
2023-03-02T07:17:25.186Z,6.50
2023-03-02T07:19:53.191Z,6.17
2023-03-02T07:22:21.243Z,6.60
2023-03-02T07:24:49.265Z,6.70
2023-03-02T07:27:17.304Z,6.33
2023-03-02T07:29:46.638Z,6.07
2023-03-02T07:32:14.807Z,5.83
2023-03-02T07:34:42.940Z,6.83
2023-03-02T07:37:10.988Z,7.00
2023-03-02T07:39:38.987Z,5.70
2023-03-02T07:42:08.851Z,5.57
2023-03-02T07:44:36.930Z,5.50
2023-03-02T07:47:06.360Z,6.63
2023-03-02T07:49:35.376Z,6.30
2023-03-02T07:52:03.516Z,5.83
2023-03-02T07:54:32.125Z,6.43
2023-03-02T07:57:00.368Z,6.10
2023-03-02T07:59:29.440Z,6.30
2023-03-02T08:01:58.210Z,6.00
2023-03-02T08:04:27.901Z,6.33
2023-03-02T08:06:55.910Z,6.43
2023-03-02T08:09:23.924Z,6.50
2023-03-02T08:11:51.939Z,6.50
2023-03-02T08:14:19.949Z,5.70
2023-03-02T08:16:48.037Z,6.17
2023-03-02T08:19:16.186Z,6.73
2023-03-02T08:21:46.099Z,6.27
2023-03-02T08:24:14.138Z,6.80
2023-03-02T08:26:42.184Z,6.80
2023-03-02T08:29:10.833Z,6.60
2023-03-02T08:31:38.879Z,6.70
2023-03-02T08:34:06.912Z,7.03
2023-03-02T08:36:35.188Z,7.13
2023-03-02T08:39:04.858Z,7.30
2023-03-02T08:41:34.641Z,6.90
2023-03-02T08:44:02.952Z,6.40
2023-03-02T08:46:31.549Z,6.60
2023-03-02T08:48:59.572Z,6.40
2023-03-02T08:51:27.631Z,6.00
2023-03-02T08:53:56.562Z,7.13
2023-03-02T08:56:28.669Z,6.20
2023-03-02T08:58:59.479Z,5.57
2023-03-02T09:01:32.227Z,5.63
2023-03-02T09:04:01.158Z,5.40
2023-03-02T09:06:30.686Z,7.23
2023-03-02T09:08:59.398Z,7.03
2023-03-02T09:11:28.915Z,8.13
2023-03-02T09:13:57.256Z,6.17
2023-03-02T09:16:25.804Z,6.63
2023-03-02T09:18:54.581Z,6.93
2023-03-02T09:21:22.882Z,6.20
2023-03-02T09:23:57.939Z,6.57
2023-03-02T09:26:26.478Z,6.40
2023-03-02T09:28:56.058Z,6.13
2023-03-02T09:31:25.074Z,7.23
2023-03-02T09:33:53.220Z,6.40
2023-03-02T09:36:23.950Z,6.63
2023-03-02T09:38:52.384Z,6.40
2023-03-02T09:41:38.052Z,6.67
2023-03-02T09:44:22.846Z,7.07
2023-03-02T09:46:53.267Z,6.93
2023-03-02T09:49:30.045Z,6.53
2023-03-02T09:52:11.500Z,6.90
2023-03-02T09:54:40.891Z,7.43
2023-03-02T09:57:21.083Z,6.37
2023-03-02T09:59:57.315Z,6.30
2023-03-02T10:02:32.157Z,6.90
2023-03-02T10:05:03.248Z,6.67
2023-03-02T10:07:33.677Z,6.77
2023-03-02T10:10:07.741Z,5.80
2023-03-02T10:12:49.847Z,6.00
2023-03-02T10:15:27.090Z,5.90
2023-03-02T10:18:04.983Z,6.57
2023-03-02T10:20:38.790Z,6.50
2023-03-02T10:23:20.853Z,5.90
2023-03-02T10:25:53.208Z,5.63
2023-03-02T10:28:23.276Z,5.80
2023-03-02T10:30:59.376Z,5.93
2023-03-02T10:33:28.572Z,4.33
2023-03-02T10:35:56.587Z,4.00
2023-03-02T10:38:26.308Z,5.00
2023-03-02T10:41:00.432Z,4.50
2023-03-02T10:43:32.496Z,4.90
2023-03-02T10:46:04.768Z,4.37
2023-03-02T10:48:32.894Z,4.43
2023-03-02T10:51:01.337Z,4.23
2023-03-02T10:53:29.492Z,3.80
2023-03-02T10:55:57.497Z,3.90
2023-03-02T10:58:30.448Z,4.40
2023-03-02T11:01:05.167Z,6.13
2023-03-02T11:03:34.566Z,3.80
2023-03-02T11:06:18.683Z,4.37
2023-03-02T11:08:46.747Z,4.13
2023-03-02T11:11:24.043Z,3.80
2023-03-02T11:13:52.452Z,4.57
2023-03-02T11:16:28.405Z,4.03
2023-03-02T11:18:59.916Z,3.03
2023-03-02T11:21:35.604Z,4.53
2023-03-02T11:24:10.681Z,3.90
2023-03-02T11:26:46.038Z,4.33
2023-03-02T11:29:25.908Z,3.77
2023-03-02T11:32:00.172Z,3.97
2023-03-02T11:34:33.752Z,3.07
2023-03-02T11:37:12.588Z,3.27
2023-03-02T11:40:03.970Z,3.77
2023-03-02T11:42:34.890Z,3.93
2023-03-02T11:45:09.872Z,3.80
2023-03-02T11:47:40.452Z,4.57
2023-03-02T11:50:13.087Z,3.77
2023-03-02T11:52:48.510Z,4.47
2023-03-02T11:55:19.669Z,3.30
2023-03-02T11:57:51.362Z,5.03
2023-03-02T12:00:31.413Z,4.00
2023-03-02T12:03:02.778Z,3.50
2023-03-02T12:05:35.553Z,3.63
2023-03-02T12:08:06.650Z,3.10
2023-03-02T12:10:39.040Z,3.87
2023-03-02T12:13:20.372Z,4.50
2023-03-02T12:15:50.623Z,4.37
2023-03-02T12:18:44.121Z,4.50
2023-03-02T12:21:14.895Z,3.90
2023-03-02T12:23:59.550Z,4.27
2023-03-02T12:26:35.920Z,3.90
2023-03-02T12:29:08.246Z,4.70
2023-03-02T12:31:45.278Z,5.80
2023-03-02T12:34:29.898Z,5.70
2023-03-02T12:37:02.905Z,6.00
2023-03-02T12:39:48.178Z,5.43
2023-03-02T12:42:35.146Z,5.03
2023-03-02T12:45:14.371Z,4.70
2023-03-02T12:47:47.859Z,5.43
2023-03-02T12:50:23.229Z,5.50
2023-03-02T12:52:59.527Z,5.70
2023-03-02T12:55:28.106Z,5.37
2023-03-02T12:57:58.362Z,5.33
2023-03-02T13:00:30.296Z,5.60
2023-03-02T13:03:00.068Z,5.90
2023-03-02T13:05:31.323Z,5.30
2023-03-02T13:08:02.334Z,4.33
2023-03-02T13:10:36.658Z,4.80
2023-03-02T13:13:17.529Z,5.03
2023-03-02T13:15:50.203Z,5.40
2023-03-02T13:18:19.163Z,5.30
2023-03-02T13:20:49.461Z,6.00
2023-03-02T13:23:18.678Z,5.10
2023-03-02T13:25:51.192Z,5.13
2023-03-02T13:28:30.613Z,4.60
2023-03-02T13:31:00.848Z,5.30
2023-03-02T13:33:30.609Z,4.97
2023-03-02T13:36:00.479Z,4.60
2023-03-02T13:38:32.144Z,5.17
2023-03-02T13:41:02.039Z,5.67
2023-03-02T13:43:40.049Z,5.53
2023-03-02T13:46:27.460Z,5.50
2023-03-02T13:49:09.077Z,5.50
2023-03-02T13:51:43.079Z,5.87
2023-03-02T13:54:21.004Z,5.90
2023-03-02T13:56:51.098Z,4.57
2023-03-02T13:59:21.180Z,5.47
2023-03-02T14:01:52.295Z,4.37
2023-03-02T14:04:23.275Z,5.73
2023-03-02T14:06:53.981Z,6.73
2023-03-02T14:09:22.335Z,5.10
2023-03-02T14:11:53.522Z,4.87
2023-03-02T14:14:27.077Z,6.23
2023-03-02T14:16:58.229Z,6.03
2023-03-02T14:19:26.238Z,5.83
2023-03-02T14:21:55.574Z,6.00
2023-03-02T14:24:23.969Z,5.40
2023-03-02T14:26:52.006Z,5.97
2023-03-02T14:29:26.043Z,6.03
2023-03-02T14:31:54.940Z,5.57
2023-03-02T14:34:23.349Z,5.80
2023-03-02T14:36:56.898Z,6.47
2023-03-02T14:39:31.430Z,5.60
2023-03-02T14:41:59.976Z,6.67
2023-03-02T14:44:28.249Z,6.53
2023-03-02T14:46:57.408Z,7.40
2023-03-02T14:49:25.556Z,6.80
2023-03-02T14:52:02.502Z,6.30
2023-03-02T14:54:37.111Z,7.40
2023-03-02T14:57:06.270Z,6.40
2023-03-02T14:59:34.357Z,5.67
2023-03-02T15:02:10.439Z,5.13
2023-03-02T15:04:47.230Z,5.27
2023-03-02T15:07:17.942Z,6.17
2023-03-02T15:09:45.962Z,5.83
2023-03-02T15:12:14.052Z,5.47
2023-03-02T15:14:42.646Z,5.70
2023-03-02T15:17:11.908Z,5.43
2023-03-02T15:19:39.978Z,6.27
2023-03-02T15:22:08.158Z,6.10
2023-03-02T15:24:37.544Z,6.10
2023-03-02T15:27:05.703Z,5.37
2023-03-02T15:29:33.893Z,5.20
2023-03-02T15:32:02.022Z,5.87
2023-03-02T15:34:30.318Z,5.20
2023-03-02T15:36:58.305Z,6.00
2023-03-02T15:39:26.334Z,5.90
2023-03-02T15:41:55.742Z,5.77
2023-03-02T15:44:25.178Z,4.97
2023-03-02T15:46:55.245Z,5.00
2023-03-02T15:49:24.850Z,4.87
2023-03-02T15:51:54.462Z,4.40
2023-03-02T15:54:22.860Z,4.83
2023-03-02T15:56:53.164Z,4.77
2023-03-02T15:59:24.473Z,5.00
2023-03-02T16:01:52.865Z,4.70
2023-03-02T16:04:21.311Z,4.47
2023-03-02T16:06:49.359Z,4.40
2023-03-02T16:09:17.766Z,4.10
2023-03-02T16:11:45.749Z,4.30
2023-03-02T16:14:15.595Z,4.17
2023-03-02T16:16:45.795Z,3.90
2023-03-02T16:19:17.773Z,4.47
2023-03-02T16:21:47.119Z,4.23
2023-03-02T16:24:16.855Z,3.60
2023-03-02T16:26:45.704Z,4.40
2023-03-02T16:29:14.490Z,5.07
2023-03-02T16:31:47.811Z,3.60
2023-03-02T16:34:17.429Z,3.57
2023-03-02T16:36:46.057Z,4.23
2023-03-02T16:39:14.947Z,3.77
2023-03-02T16:41:44.585Z,3.40
2023-03-02T16:44:14.459Z,3.23
2023-03-02T16:46:43.378Z,3.43
2023-03-02T16:49:13.884Z,3.83
2023-03-02T16:51:43.209Z,3.80
2023-03-02T16:54:11.737Z,3.17
2023-03-02T16:56:41.755Z,3.13
2023-03-02T16:59:09.789Z,3.10
2023-03-02T17:01:37.947Z,3.50
2023-03-02T17:04:06.258Z,2.90
2023-03-02T17:06:35.886Z,3.37
2023-03-02T17:09:04.853Z,3.60
2023-03-02T17:11:33.130Z,3.30
2023-03-02T17:14:01.098Z,3.50
2023-03-02T17:16:29.132Z,3.30
2023-03-02T17:18:57.196Z,2.70
2023-03-02T17:21:25.228Z,2.80
2023-03-02T17:23:54.634Z,3.37
2023-03-02T17:26:22.616Z,3.90
2023-03-02T17:28:50.998Z,3.37
2023-03-02T17:31:20.160Z,2.93
2023-03-02T17:33:48.231Z,3.03
2023-03-02T17:36:16.291Z,2.70
2023-03-02T17:38:44.340Z,2.93
2023-03-02T17:41:13.744Z,4.90
2023-03-02T17:43:42.922Z,3.27
2023-03-02T17:46:16.772Z,3.00
2023-03-02T17:48:44.847Z,3.90
2023-03-02T17:51:14.913Z,4.30
2023-03-02T17:53:43.142Z,4.73
2023-03-02T17:56:13.322Z,5.40
2023-03-02T17:58:45.093Z,4.20
2023-03-02T18:01:15.595Z,4.00
2023-03-02T18:03:44.906Z,3.87
2023-03-02T18:06:13.623Z,3.20
2023-03-02T18:08:41.699Z,3.20
2023-03-02T18:11:09.731Z,3.40
2023-03-02T18:13:40.133Z,2.87
2023-03-02T18:16:08.815Z,3.23
2023-03-02T18:18:37.113Z,3.37
2023-03-02T18:21:05.797Z,3.90
2023-03-02T18:23:33.899Z,3.83
2023-03-02T18:26:01.928Z,4.13
2023-03-02T18:28:30.011Z,3.10
2023-03-02T18:31:00.075Z,3.30
2023-03-02T18:33:28.513Z,3.50
2023-03-02T18:35:57.210Z,4.43
2023-03-02T18:38:30.603Z,5.40
2023-03-02T18:41:00.581Z,5.43
2023-03-02T18:43:29.628Z,4.40
2023-03-02T18:45:59.382Z,4.93
2023-03-02T18:48:27.474Z,5.33
2023-03-02T18:50:55.724Z,5.67
2023-03-02T18:53:23.790Z,4.93
2023-03-02T18:55:55.341Z,5.03
2023-03-02T18:58:25.214Z,7.13
2023-03-02T19:00:54.807Z,7.73
2023-03-02T19:03:24.727Z,5.40
2023-03-02T19:05:57.629Z,4.87
2023-03-02T19:08:26.546Z,5.90
2023-03-02T19:10:55.580Z,5.60
2023-03-02T19:13:24.757Z,6.07
2023-03-02T19:15:54.881Z,4.80
2023-03-02T19:18:26.232Z,4.50
2023-03-02T19:20:55.674Z,3.77
2023-03-02T19:23:24.353Z,3.73
2023-03-02T19:25:53.019Z,4.00
2023-03-02T19:28:21.869Z,4.73
2023-03-02T19:30:50.654Z,4.80
2023-03-02T19:33:19.072Z,6.60
2023-03-02T19:35:48.446Z,4.90
2023-03-02T19:38:18.161Z,3.50
2023-03-02T19:40:46.231Z,4.70
2023-03-02T19:43:14.334Z,4.73
2023-03-02T19:45:42.721Z,4.00
2023-03-02T19:48:13.651Z,4.90
2023-03-02T19:50:42.214Z,4.13
2023-03-02T19:53:11.664Z,3.73
2023-03-02T19:55:42.463Z,3.80
2023-03-02T19:58:17.113Z,4.27
2023-03-02T20:00:46.137Z,10.37
2023-03-02T20:03:15.129Z,6.07
2023-03-02T20:05:43.130Z,5.97
2023-03-02T20:08:12.613Z,5.07
2023-03-02T20:10:44.416Z,3.50
2023-03-02T20:13:12.515Z,4.37
2023-03-02T20:15:47.548Z,5.53
2023-03-02T20:18:18.772Z,4.50
2023-03-02T20:20:48.344Z,4.33
2023-03-02T20:23:18.702Z,4.03
2023-03-02T20:25:48.444Z,4.40
2023-03-02T20:28:18.579Z,4.50
2023-03-02T20:30:48.998Z,4.87
2023-03-02T20:33:20.154Z,4.70
2023-03-02T20:35:48.976Z,4.30
2023-03-02T20:38:23.974Z,4.43
2023-03-02T20:40:52.279Z,4.30
2023-03-02T20:43:20.962Z,4.87
2023-03-02T20:45:49.279Z,4.80
2023-03-02T20:48:17.492Z,5.40
2023-03-02T20:50:45.886Z,5.53
2023-03-02T20:53:14.820Z,6.07
2023-03-02T20:55:44.836Z,12.93
2023-03-02T20:58:13.674Z,19.17
2023-03-02T21:00:42.121Z,10.63
2023-03-02T21:03:10.461Z,11.47
2023-03-02T21:05:41.107Z,4.83
2023-03-02T21:08:11.117Z,8.77
2023-03-02T21:10:40.057Z,4.80
2023-03-02T21:13:11.844Z,4.37
2023-03-02T21:15:41.030Z,4.30
2023-03-02T21:18:09.112Z,5.33
2023-03-02T21:20:37.483Z,5.53
2023-03-02T21:23:05.879Z,4.47
2023-03-02T21:25:34.155Z,4.23
2023-03-02T21:28:02.288Z,4.13
2023-03-02T21:30:34.835Z,4.10
2023-03-02T21:33:03.658Z,5.60
2023-03-02T21:35:32.354Z,4.37
2023-03-02T21:38:04.732Z,4.90
2023-03-02T21:40:36.065Z,4.97
2023-03-02T21:43:06.436Z,4.27
2023-03-02T21:45:36.921Z,4.43
2023-03-02T21:48:06.131Z,5.50
2023-03-02T21:50:37.334Z,5.40
2023-03-02T21:53:05.738Z,4.93
2023-03-02T21:55:34.296Z,4.67
2023-03-02T21:58:02.354Z,5.30
2023-03-02T22:00:33.308Z,5.00
2023-03-02T22:03:03.641Z,4.70
2023-03-02T22:05:32.633Z,5.13
2023-03-02T22:08:01.102Z,5.60
2023-03-02T22:10:33.065Z,5.20
2023-03-02T22:13:15.674Z,5.80
2023-03-02T22:15:43.738Z,5.67
2023-03-02T22:18:15.325Z,5.43
2023-03-02T22:20:45.001Z,5.40
2023-03-02T22:23:14.266Z,5.90
2023-03-02T22:25:44.365Z,6.10
2023-03-02T22:28:17.727Z,6.07
2023-03-02T22:30:45.916Z,6.03
2023-03-02T22:33:20.106Z,6.37
2023-03-02T22:35:48.658Z,6.60
2023-03-02T22:38:26.754Z,5.83
2023-03-02T22:40:55.692Z,5.30
2023-03-02T22:43:27.028Z,6.63
2023-03-02T22:45:58.856Z,5.83
2023-03-02T22:48:30.064Z,6.17
2023-03-02T22:50:58.125Z,5.40
2023-03-02T22:53:29.029Z,6.80
2023-03-02T22:56:02.283Z,5.20
2023-03-02T22:58:44.541Z,5.43
2023-03-02T23:01:24.089Z,6.57
2023-03-02T23:03:55.346Z,6.43
2023-03-02T23:06:30.217Z,5.03
2023-03-02T23:08:59.980Z,5.80
2023-03-02T23:11:29.599Z,6.10
2023-03-02T23:13:57.667Z,6.23
2023-03-02T23:16:27.465Z,6.00
2023-03-02T23:18:59.218Z,6.10
2023-03-02T23:21:38.436Z,6.80
2023-03-02T23:24:08.184Z,6.60
2023-03-02T23:26:36.455Z,6.80
2023-03-02T23:29:05.380Z,6.83
2023-03-02T23:31:33.660Z,6.97
2023-03-02T23:34:03.201Z,7.30
2023-03-02T23:36:31.956Z,6.40
2023-03-02T23:39:00.054Z,6.93
2023-03-02T23:41:28.297Z,7.40
2023-03-02T23:43:56.323Z,8.20
2023-03-02T23:46:24.310Z,6.70
2023-03-02T23:48:52.669Z,7.93
2023-03-02T23:51:22.167Z,6.60
2023-03-02T23:53:50.292Z,7.40
2023-03-02T23:56:18.355Z,7.00
2023-03-02T23:58:46.426Z,7.30
